Time;durP1;ratioP1;P1;durP2;ratioP2;P2;SDS_P1;SDS_P2;PMS_P1;PMS_P2;Temp;Humidity;BMP_temperature;BMP_pressure;BME280_temperature;BME280_humidity;BME280_pressure;Samples;Min_cycle;Max_cycle;Signal;HPM_P1;HPM_P2
2023/01/03 00:01:43;;;;;;;;;;;32.90;90.70;;;;;;5071227;28;20335;-77
2023/01/03 00:04:10;;;;;;;;;;;32.50;90.90;;;;;;5069504;28;19951;-78
2023/01/03 00:06:39;;;;;;;;;;;32.10;91.40;;;;;;5062866;28;19970;-74
2023/01/03 00:09:10;;;;;;;;;;;32.20;91.50;;;;;;5068629;28;20007;-76
2023/01/03 00:14:27;;;;;;;;;;;33.00;90.90;;;;;;5063313;28;20409;-78
2023/01/03 00:16:57;;;;;;;;;;;33.40;90.80;;;;;;5071800;28;19939;-74
2023/01/03 00:19:24;;;;;;;;;;;33.10;90.40;;;;;;5083815;28;19924;-78
2023/01/03 00:21:51;;;;;;;;;;;33.10;90.50;;;;;;5081775;28;19936;-73
2023/01/03 00:24:18;;;;;;;;;;;33.20;90.10;;;;;;5075892;28;20012;-78
2023/01/03 00:26:45;;;;;;;;;;;33.40;90.00;;;;;;5072033;28;19916;-78
2023/01/03 00:29:11;;;;;;;;;;;33.70;89.90;;;;;;5070019;28;19913;-80
2023/01/03 00:31:38;;;;;;;;;;;33.90;90.00;;;;;;5066560;28;20010;-76
2023/01/03 00:34:05;;;;;;;;;;;34.30;89.40;;;;;;5072554;28;19944;-77
2023/01/03 00:36:32;;;;;;;;;;;34.60;89.50;;;;;;5069553;28;20236;-75
2023/01/03 00:38:59;;;;;;;;;;;34.90;89.80;;;;;;5070633;28;19931;-79
2023/01/03 00:41:26;;;;;;;;;;;35.20;90.00;;;;;;5068739;28;19921;-74
2023/01/03 00:43:53;;;;;;;;;;;35.60;87.60;;;;;;5059754;28;20421;-74
2023/01/03 00:46:20;;;;;;;;;;;35.80;89.10;;;;;;5070065;28;19921;-76
2023/01/03 00:48:47;;;;;;;;;;;36.00;87.40;;;;;;5061615;28;19945;-74
2023/01/03 00:51:15;;;;;;;;;;;36.30;87.50;;;;;;5062125;28;19912;-73
2023/01/03 00:53:43;;;;;;;;;;;36.40;84.50;;;;;;5064591;28;19917;-71
2023/01/03 00:56:14;;;;;;;;;;;36.30;85.40;;;;;;5064987;28;19928;-77
2023/01/03 00:58:41;;;;;;;;;;;36.20;85.50;;;;;;5059552;28;20338;-78
2023/01/03 01:01:12;;;;;;;;;;;36.20;85.20;;;;;;5063990;28;19920;-72
2023/01/03 01:03:39;;;;;;;;;;;36.40;85.30;;;;;;5067652;28;19991;-78
2023/01/03 01:06:21;;;;;;;;;;;36.40;83.70;;;;;;5069641;28;19916;-77
2023/01/03 01:08:48;;;;;;;;;;;36.20;85.60;;;;;;5070263;28;20357;-75
2023/01/03 01:11:15;;;;;;;;;;;36.30;85.80;;;;;;5070636;28;19959;-76
2023/01/03 01:13:42;;;;;;;;;;;36.70;85.70;;;;;;5059567;28;19912;-80
2023/01/03 01:16:14;;;;;;;;;;;36.90;84.40;;;;;;5063924;28;19959;-78
2023/01/03 01:18:42;;;;;;;;;;;37.20;85.00;;;;;;5061482;28;20367;-78
2023/01/03 01:21:10;;;;;;;;;;;37.40;84.10;;;;;;5062391;28;20038;-78
2023/01/03 01:23:38;;;;;;;;;;;37.50;82.90;;;;;;5066192;28;20260;-76
2023/01/03 01:26:05;;;;;;;;;;;37.60;83.40;;;;;;5071769;28;19920;-77
2023/01/03 01:28:33;;;;;;;;;;;37.60;82.00;;;;;;5067810;28;20333;-77
2023/01/03 01:31:00;;;;;;;;;;;37.80;82.40;;;;;;5057684;28;20011;-76
2023/01/03 01:33:28;;;;;;;;;;;38.00;81.50;;;;;;5066005;28;19946;-74
2023/01/03 01:35:54;;;;;;;;;;;37.80;80.60;;;;;;5068712;28;19969;-80
2023/01/03 01:38:21;;;;;;;;;;;37.80;81.50;;;;;;5068722;28;19964;-73
2023/01/03 01:40:47;;;;;;;;;;;37.50;80.10;;;;;;5069464;28;20374;-80
2023/01/03 01:46:26;;;;;;;;;;;36.90;80.40;;;;;;5067587;28;19916;-78
2023/01/03 01:48:58;;;;;;;;;;;37.10;81.50;;;;;;5068923;28;20007;-74
2023/01/03 01:51:26;;;;;;;;;;;37.40;81.30;;;;;;5069081;28;20019;-80
2023/01/03 01:53:55;;;;;;;;;;;37.50;79.50;;;;;;5071215;28;20289;-78
2023/01/03 01:56:24;;;;;;;;;;;37.40;80.10;;;;;;5065600;28;19916;-76
2023/01/03 01:58:52;;;;;;;;;;;37.40;79.80;;;;;;5057513;28;19981;-77
2023/01/03 02:01:20;;;;;;;;;;;37.70;81.00;;;;;;5052002;28;20008;-78
2023/01/03 02:03:54;;;;;;;;;;;38.00;79.90;;;;;;5062078;28;20012;-74
2023/01/03 02:06:21;;;;;;;;;;;38.10;78.60;;;;;;5056140;28;19932;-78
2023/01/03 02:08:48;;;;;;;;;;;38.30;79.60;;;;;;5057157;28;20409;-71
2023/01/03 02:11:18;;;;;;;;;;;38.10;79.80;;;;;;5059169;28;19986;-78
2023/01/03 02:14:02;;;;;;;;;;;38.10;78.10;;;;;;5057705;28;19916;-70
2023/01/03 02:16:49;;;;;;;;;;;37.80;79.20;;;;;;5067558;28;19919;-77
2023/01/03 02:19:15;;;;;;;;;;;37.90;79.50;;;;;;5065039;28;20024;-76
2023/01/03 02:22:00;;;;;;;;;;;38.10;78.70;;;;;;5058209;28;20640;-79
2023/01/03 02:24:38;;;;;;;;;;;38.20;77.60;;;;;;5066106;28;20028;-75
2023/01/03 02:27:08;;;;;;;;;;;38.10;77.90;;;;;;5054394;28;19913;-76
2023/01/03 02:29:37;;;;;;;;;;;38.20;79.00;;;;;;5067662;28;19923;-74
2023/01/03 02:32:12;;;;;;;;;;;38.20;80.20;;;;;;5067509;28;19920;-75
2023/01/03 02:34:57;;;;;;;;;;;38.00;80.00;;;;;;5064544;28;20209;-72
2023/01/03 02:37:24;;;;;;;;;;;38.00;80.40;;;;;;5062772;28;20022;-77
2023/01/03 02:39:54;;;;;;;;;;;37.90;79.20;;;;;;5068927;28;19924;-78
2023/01/03 02:43:00;;;;;;;;;;;37.80;78.90;;;;;;5068029;28;19924;-78
2023/01/03 02:45:47;;;;;;;;;;;37.70;80.50;;;;;;5025992;28;19917;-71
2023/01/03 02:48:16;;;;;;;;;;;37.90;79.80;;;;;;5047148;28;20343;-77
2023/01/03 02:50:48;;;;;;;;;;;37.80;78.70;;;;;;5069424;28;19912;-79
2023/01/03 02:53:26;;;;;;;;;;;37.60;79.70;;;;;;5067035;28;19916;-78
2023/01/03 02:55:56;;;;;;;;;;;37.60;79.30;;;;;;5065997;28;19912;-78
2023/01/03 02:58:24;;;;;;;;;;;37.70;79.00;;;;;;5068134;28;20385;-78
2023/01/03 03:00:54;;;;;;;;;;;37.80;79.30;;;;;;5063700;28;19917;-77
2023/01/03 03:03:24;;;;;;;;;;;37.70;79.90;;;;;;5068445;28;19916;-75
2023/01/03 03:05:50;;;;;;;;;;;37.80;80.20;;;;;;5065380;28;19920;-76
2023/01/03 03:08:17;;;;;;;;;;;37.90;79.70;;;;;;5064843;28;20027;-78
2023/01/03 03:13:29;;;;;;;;;;;37.80;80.00;;;;;;5065994;28;19923;-75
2023/01/03 03:16:00;;;;;;;;;;;37.70;79.80;;;;;;5062239;28;19938;-73
2023/01/03 03:18:31;;;;;;;;;;;37.70;79.30;;;;;;5070672;28;19970;-73
2023/01/03 03:26:36;;;;;;;;;;;37.40;79.50;;;;;;5069978;28;19924;-75
2023/01/03 03:29:05;;;;;;;;;;;37.30;80.20;;;;;;5059205;28;20327;-77
2023/01/03 03:31:39;;;;;;;;;;;37.20;80.20;;;;;;5059126;28;19924;-74
2023/01/03 03:34:14;;;;;;;;;;;37.20;79.50;;;;;;5068069;28;19919;-74
2023/01/03 03:36:59;;;;;;;;;;;37.00;79.50;;;;;;5065469;28;19951;-77
2023/01/03 03:45:15;;;;;;;;;;;37.00;79.60;;;;;;5056683;28;19958;-72
2023/01/03 03:47:42;;;;;;;;;;;37.00;79.70;;;;;;5060679;28;19912;-77
2023/01/03 03:50:28;;;;;;;;;;;37.00;79.90;;;;;;5073064;28;19916;-74
2023/01/03 03:52:57;;;;;;;;;;;37.00;79.60;;;;;;5061938;28;19916;-76
2023/01/03 03:55:33;;;;;;;;;;;36.90;78.90;;;;;;5069617;28;19927;-77
2023/01/03 03:58:03;;;;;;;;;;;36.90;80.20;;;;;;5064062;28;20011;-75
2023/01/03 04:00:32;;;;;;;;;;;36.80;79.50;;;;;;5073520;28;19920;-77
2023/01/03 04:02:59;;;;;;;;;;;36.50;79.20;;;;;;5061385;28;20591;-75
2023/01/03 04:05:28;;;;;;;;;;;36.40;79.40;;;;;;5065183;27;19969;-72
2023/01/03 04:07:55;;;;;;;;;;;36.30;79.70;;;;;;5069317;28;19988;-74
2023/01/03 04:10:22;;;;;;;;;;;36.40;79.20;;;;;;5067598;28;19912;-75
2023/01/03 04:12:49;;;;;;;;;;;36.30;80.00;;;;;;5069423;28;19946;-75
2023/01/03 04:15:17;;;;;;;;;;;36.00;79.10;;;;;;5074643;28;19965;-71
2023/01/03 04:17:44;;;;;;;;;;;35.40;79.80;;;;;;5068398;28;20355;-75
2023/01/03 04:20:11;;;;;;;;;;;35.20;80.30;;;;;;5055665;28;19924;-74
2023/01/03 04:22:38;;;;;;;;;;;35.20;79.80;;;;;;5070015;28;19912;-74
2023/01/03 04:25:05;;;;;;;;;;;35.00;80.00;;;;;;5053544;28;19908;-75
2023/01/03 04:27:32;;;;;;;;;;;35.00;80.40;;;;;;5063890;28;20043;-73
2023/01/03 04:29:58;;;;;;;;;;;35.10;80.10;;;;;;5070027;28;20001;-73
2023/01/03 04:32:25;;;;;;;;;;;35.10;79.70;;;;;;5062091;28;19947;-73
2023/01/03 04:34:52;;;;;;;;;;;35.10;80.00;;;;;;5061202;28;19941;-73
2023/01/03 04:37:18;;;;;;;;;;;35.20;80.00;;;;;;5061307;28;19916;-72
2023/01/03 04:39:45;;;;;;;;;;;35.30;79.90;;;;;;5062552;28;19920;-70
2023/01/03 04:44:56;;;;;;;;;;;35.20;80.20;;;;;;5061596;28;21661;-74
2023/01/03 04:47:23;;;;;;;;;;;35.30;79.60;;;;;;5083193;28;19923;-73
2023/01/03 04:49:49;;;;;;;;;;;35.20;79.50;;;;;;5069863;28;19920;-72
2023/01/03 04:52:16;;;;;;;;;;;35.20;79.30;;;;;;5069661;28;20363;-71
2023/01/03 04:54:43;;;;;;;;;;;35.20;79.90;;;;;;5069572;28;20359;-69
2023/01/03 04:57:09;;;;;;;;;;;35.20;79.70;;;;;;5069191;28;20640;-71
2023/01/03 04:59:36;;;;;;;;;;;35.20;80.10;;;;;;5070731;28;19993;-69
2023/01/03 05:02:03;;;;;;;;;;;35.10;80.10;;;;;;5068887;28;20007;-70
2023/01/03 05:04:30;;;;;;;;;;;34.80;80.30;;;;;;5069807;28;19920;-71
2023/01/03 05:06:56;;;;;;;;;;;34.90;80.40;;;;;;5064514;28;19948;-70
2023/01/03 05:09:25;;;;;;;;;;;34.90;80.40;;;;;;5065667;28;19959;-72
2023/01/03 05:11:52;;;;;;;;;;;34.60;80.30;;;;;;5064109;28;19999;-72
2023/01/03 05:14:19;;;;;;;;;;;34.10;81.20;;;;;;5056291;28;19923;-72
2023/01/03 05:16:46;;;;;;;;;;;33.70;81.80;;;;;;5055783;28;19920;-72
2023/01/03 05:19:12;;;;;;;;;;;33.60;82.10;;;;;;5054597;28;19952;-74
2023/01/03 05:27:22;;;;;;;;;;;32.80;83.30;;;;;;5056066;28;19966;-72
2023/01/03 05:29:50;;;;;;;;;;;33.00;83.90;;;;;;5071771;28;19913;-74
2023/01/03 05:32:16;;;;;;;;;;;33.40;83.50;;;;;;5071956;28;19935;-72
2023/01/03 05:34:43;;;;;;;;;;;33.70;83.40;;;;;;5056501;28;21042;-72
2023/01/03 05:37:10;;;;;;;;;;;33.90;83.30;;;;;;5061625;28;19924;-70
2023/01/03 05:39:36;;;;;;;;;;;34.10;82.90;;;;;;5070079;28;19934;-72
2023/01/03 05:42:03;;;;;;;;;;;34.10;82.80;;;;;;5056771;28;19913;-72
2023/01/03 05:44:31;;;;;;;;;;;33.70;82.40;;;;;;5059451;28;19920;-72
2023/01/03 05:46:59;;;;;;;;;;;33.30;83.00;;;;;;5057816;28;19912;-73
2023/01/03 05:49:26;;;;;;;;;;;32.80;83.60;;;;;;5057093;28;19916;-70
2023/01/03 05:51:52;;;;;;;;;;;32.50;84.20;;;;;;5068299;28;19917;-73
2023/01/03 05:54:20;;;;;;;;;;;32.30;84.60;;;;;;5069290;28;19985;-74
2023/01/03 05:56:47;;;;;;;;;;;32.20;84.80;;;;;;5068917;28;20660;-71
2023/01/03 05:59:13;;;;;;;;;;;32.10;85.20;;;;;;5069822;28;20023;-71
2023/01/03 06:01:40;;;;;;;;;;;32.00;85.40;;;;;;5059170;28;19917;-74
2023/01/03 06:04:07;;;;;;;;;;;32.20;85.80;;;;;;5062773;28;20287;-72
2023/01/03 06:06:33;;;;;;;;;;;32.50;85.70;;;;;;5061130;28;20392;-72
2023/01/03 06:09:00;;;;;;;;;;;32.90;85.40;;;;;;5065418;28;20646;-71
2023/01/03 06:11:27;;;;;;;;;;;33.20;84.50;;;;;;5065330;28;19916;-71
2023/01/03 06:13:53;;;;;;;;;;;33.20;83.40;;;;;;5062266;28;20066;-73
2023/01/03 06:19:05;;;;;;;;;;;33.00;84.40;;;;;;5056291;28;19927;-74
2023/01/03 06:21:32;;;;;;;;;;;32.80;84.60;;;;;;5063769;28;19913;-76
2023/01/03 06:23:59;;;;;;;;;;;32.40;84.70;;;;;;5058793;28;19939;-74
2023/01/03 06:26:26;;;;;;;;;;;32.10;84.90;;;;;;5061522;28;19912;-73
2023/01/03 06:28:52;;;;;;;;;;;31.90;85.80;;;;;;5059836;28;19912;-73
2023/01/03 06:31:19;;;;;;;;;;;31.80;85.60;;;;;;5059971;28;20371;-78
2023/01/03 06:33:46;;;;;;;;;;;31.70;85.80;;;;;;5065968;28;20381;-74
2023/01/03 06:36:15;;;;;;;;;;;31.50;85.90;;;;;;5060390;28;19920;-71
2023/01/03 06:38:42;;;;;;;;;;;31.50;85.70;;;;;;5060056;28;20266;-72
2023/01/03 06:41:08;;;;;;;;;;;31.50;85.50;;;;;;5083625;28;19967;-75
2023/01/03 06:43:35;;;;;;;;;;;31.60;85.70;;;;;;5068521;28;19923;-70
2023/01/03 06:54:20;;;;;;;;;;;31.20;88.10;;;;;;5063970;28;19992;-72
2023/01/03 06:56:48;;;;;;;;;;;31.10;87.80;;;;;;5067040;28;20370;-73
2023/01/03 06:59:15;;;;;;;;;;;31.00;87.90;;;;;;5064613;28;19931;-74
2023/01/03 07:01:41;;;;;;;;;;;30.70;88.50;;;;;;5068646;28;19913;-73
2023/01/03 07:04:08;;;;;;;;;;;30.50;89.00;;;;;;5067163;28;19912;-74
2023/01/03 07:06:35;;;;;;;;;;;30.30;89.50;;;;;;5059848;28;19913;-72
2023/01/03 07:09:02;;;;;;;;;;;30.10;90.00;;;;;;5060989;28;19924;-74
2023/01/03 07:11:29;;;;;;;;;;;30.00;90.20;;;;;;5069702;28;19948;-73
2023/01/03 07:13:59;;;;;;;;;;;30.00;90.20;;;;;;5065810;28;19912;-73
2023/01/03 07:16:29;;;;;;;;;;;30.00;90.40;;;;;;5065224;28;19923;-72
2023/01/03 07:18:56;;;;;;;;;;;30.10;90.30;;;;;;5065589;28;19946;-74
2023/01/03 07:21:23;;;;;;;;;;;30.20;90.30;;;;;;5058609;28;20016;-76
2023/01/03 07:23:51;;;;;;;;;;;30.30;90.20;;;;;;5069013;28;20019;-72
2023/01/03 07:26:18;;;;;;;;;;;30.30;90.20;;;;;;5068154;28;20367;-73
2023/01/03 07:28:45;;;;;;;;;;;30.20;90.00;;;;;;5068404;28;20381;-70
2023/01/03 07:31:12;;;;;;;;;;;30.20;90.00;;;;;;5065212;28;19916;-71
2023/01/03 07:33:39;;;;;;;;;;;30.20;89.90;;;;;;5067373;28;20302;-70
2023/01/03 07:36:07;;;;;;;;;;;30.30;89.70;;;;;;5068439;28;19916;-74
2023/01/03 07:38:34;;;;;;;;;;;30.30;88.60;;;;;;5063639;28;19921;-71
2023/01/03 07:41:01;;;;;;;;;;;30.20;87.70;;;;;;5064735;28;19925;-71
2023/01/03 07:43:37;;;;;;;;;;;30.00;87.50;;;;;;5066095;28;19999;-70
2023/01/03 07:46:06;;;;;;;;;;;29.90;88.00;;;;;;5070554;28;19924;-74
2023/01/03 07:48:33;;;;;;;;;;;29.70;88.50;;;;;;5067896;28;19912;-69
2023/01/03 07:51:00;;;;;;;;;;;29.40;89.10;;;;;;5068973;28;20293;-70
2023/01/03 07:53:27;;;;;;;;;;;29.20;89.70;;;;;;5064479;28;19912;-69
2023/01/03 07:55:54;;;;;;;;;;;29.10;90.00;;;;;;5068594;28;19916;-75
2023/01/03 07:58:22;;;;;;;;;;;28.90;90.10;;;;;;5062628;28;20062;-74
2023/01/03 08:00:49;;;;;;;;;;;28.80;89.90;;;;;;5071549;28;19995;-71
2023/01/03 08:03:15;;;;;;;;;;;28.70;90.00;;;;;;5071029;28;20481;-74
2023/01/03 08:05:42;;;;;;;;;;;28.50;90.20;;;;;;5070076;28;19927;-72
2023/01/03 08:08:09;;;;;;;;;;;28.40;90.50;;;;;;5072311;28;19913;-72
2023/01/03 08:13:21;;;;;;;;;;;28.10;90.80;;;;;;5060117;28;19920;-73
2023/01/03 08:15:49;;;;;;;;;;;28.00;91.10;;;;;;5073413;28;19908;-72
2023/01/03 08:18:18;;;;;;;;;;;28.00;91.20;;;;;;5063522;28;19935;-71
2023/01/03 08:20:45;;;;;;;;;;;28.00;91.50;;;;;;5072310;28;19921;-73
2023/01/03 08:23:13;;;;;;;;;;;27.80;91.60;;;;;;5071734;28;19920;-72
2023/01/03 08:25:39;;;;;;;;;;;27.70;91.60;;;;;;5073142;28;19927;-72
2023/01/03 08:28:07;;;;;;;;;;;27.70;91.50;;;;;;5068809;28;20349;-69
2023/01/03 08:30:35;;;;;;;;;;;27.60;91.60;;;;;;5068129;28;21123;-72
2023/01/03 08:33:03;;;;;;;;;;;27.40;91.60;;;;;;5070475;28;19917;-75
2023/01/03 08:35:32;;;;;;;;;;;27.30;91.70;;;;;;5066255;28;19908;-69
2023/01/03 08:38:00;;;;;;;;;;;27.20;91.90;;;;;;5068889;28;19956;-72
2023/01/03 08:40:28;;;;;;;;;;;27.20;91.80;;;;;;5061580;28;20377;-74
2023/01/03 08:42:55;;;;;;;;;;;27.20;91.70;;;;;;5062305;28;20405;-74
2023/01/03 08:45:21;;;;;;;;;;;27.10;91.80;;;;;;5064734;28;20350;-72
2023/01/03 08:47:48;;;;;;;;;;;27.10;91.90;;;;;;5068848;28;20374;-74
2023/01/03 08:50:15;;;;;;;;;;;27.00;91.80;;;;;;5066555;28;19916;-73
2023/01/03 08:52:41;;;;;;;;;;;27.00;91.70;;;;;;5063766;28;20007;-73
2023/01/03 08:55:08;;;;;;;;;;;27.10;91.80;;;;;;5062768;28;19916;-74
2023/01/03 08:57:35;;;;;;;;;;;27.00;91.90;;;;;;5069253;28;19971;-72
2023/01/03 09:00:02;;;;;;;;;;;26.90;92.70;;;;;;5071323;28;19924;-74
2023/01/03 09:02:29;;;;;;;;;;;26.90;92.70;;;;;;5069681;28;19940;-70
2023/01/03 09:04:55;;;;;;;;;;;26.80;92.80;;;;;;5069653;28;19913;-73
2023/01/03 09:07:22;;;;;;;;;;;26.80;93.10;;;;;;5069656;28;19995;-71
2023/01/03 09:09:49;;;;;;;;;;;26.80;93.00;;;;;;5067049;28;19996;-71
2023/01/03 09:12:16;;;;;;;;;;;26.70;93.00;;;;;;5069818;28;20377;-69
2023/01/03 09:14:43;;;;;;;;;;;26.70;92.90;;;;;;5064918;28;20345;-73
2023/01/03 09:17:10;;;;;;;;;;;26.60;93.10;;;;;;5069863;28;19948;-70
2023/01/03 09:19:36;;;;;;;;;;;26.60;93.50;;;;;;5066102;28;19971;-72
2023/01/03 09:22:03;;;;;;;;;;;26.50;93.60;;;;;;5070269;28;19958;-73
2023/01/03 09:24:30;;;;;;;;;;;26.50;94.20;;;;;;5067296;28;20642;-70
2023/01/03 09:26:56;;;;;;;;;;;26.40;94.30;;;;;;5069306;28;20277;-75
2023/01/03 09:29:23;;;;;;;;;;;26.40;94.90;;;;;;5067368;28;19916;-73
2023/01/03 09:31:50;;;;;;;;;;;26.30;95.50;;;;;;5075514;28;19920;-71
2023/01/03 09:34:16;;;;;;;;;;;26.20;96.00;;;;;;5067644;28;20286;-73
2023/01/03 09:36:43;;;;;;;;;;;26.20;96.70;;;;;;5068566;28;20357;-73
2023/01/03 09:39:09;;;;;;;;;;;26.10;97.50;;;;;;5066903;28;19934;-73
2023/01/03 09:41:38;;;;;;;;;;;26.00;97.90;;;;;;5062119;28;19920;-75
2023/01/03 09:44:06;;;;;;;;;;;26.00;98.40;;;;;;5081464;28;19913;-72
2023/01/03 09:46:34;;;;;;;;;;;25.90;99.00;;;;;;5069609;28;20374;-74
2023/01/03 09:49:01;;;;;;;;;;;25.80;99.90;;;;;;5075401;28;19927;-74
2023/01/03 10:06:00;;;;;;;;;;;24.10;99.90;;;;;;5066821;28;19969;-74
2023/01/03 10:08:45;;;;;;;;;;;24.00;99.90;;;;;;5063266;28;19917;-73
2023/01/03 10:11:19;;;;;;;;;;;23.80;99.90;;;;;;5054830;28;19924;-70
2023/01/03 10:13:45;;;;;;;;;;;23.60;99.90;;;;;;5066524;28;20289;-73
2023/01/03 10:16:20;;;;;;;;;;;23.50;99.90;;;;;;5061901;28;19920;-73
2023/01/03 10:18:47;;;;;;;;;;;23.40;99.90;;;;;;5054986;28;19917;-80
2023/01/03 10:21:32;;;;;;;;;;;23.40;99.90;;;;;;5061978;28;20408;-78
2023/01/03 10:23:59;;;;;;;;;;;23.30;99.90;;;;;;5064756;28;20325;-76
2023/01/03 10:26:26;;;;;;;;;;;23.30;99.90;;;;;;5069538;28;20376;-74
2023/01/03 10:28:53;;;;;;;;;;;23.40;99.90;;;;;;5069070;28;19916;-75
2023/01/03 10:31:46;;;;;;;;;;;23.30;99.90;;;;;;5066962;28;20002;-75
2023/01/03 10:34:12;;;;;;;;;;;23.30;99.90;;;;;;5068620;28;19923;-74
2023/01/03 10:36:39;;;;;;;;;;;23.50;99.90;;;;;;5069988;28;20446;-75
2023/01/03 10:39:07;;;;;;;;;;;23.60;99.90;;;;;;5104865;28;19946;-77
2023/01/03 10:41:47;;;;;;;;;;;23.60;99.90;;;;;;5074986;28;19920;-79
2023/01/03 10:44:30;;;;;;;;;;;23.60;99.90;;;;;;5070362;28;19916;-72
2023/01/03 10:46:58;;;;;;;;;;;23.60;99.90;;;;;;5064230;28;19909;-73
2023/01/03 10:49:29;;;;;;;;;;;23.60;99.90;;;;;;5067854;28;19912;-69
2023/01/03 10:52:08;;;;;;;;;;;23.60;99.90;;;;;;5063830;28;19943;-75
2023/01/03 10:54:48;;;;;;;;;;;23.50;99.90;;;;;;5065802;28;19920;-74
2023/01/03 10:57:33;;;;;;;;;;;23.60;99.90;;;;;;5062544;28;19917;-73
2023/01/03 10:59:59;;;;;;;;;;;23.60;99.90;;;;;;5057598;28;19964;-74
2023/01/03 11:02:26;;;;;;;;;;;23.50;99.90;;;;;;5057164;28;19913;-70
2023/01/03 11:05:11;;;;;;;;;;;23.50;99.90;;;;;;5055710;28;19912;-73
2023/01/03 11:07:52;;;;;;;;;;;23.40;99.90;;;;;;5063238;28;20412;-72
2023/01/03 11:10:19;;;;;;;;;;;23.20;99.90;;;;;;5067669;28;20300;-73
2023/01/03 11:12:47;;;;;;;;;;;23.10;99.90;;;;;;5067164;28;19912;-74
2023/01/03 11:15:17;;;;;;;;;;;22.90;99.90;;;;;;5069490;28;19916;-73
2023/01/03 11:17:53;;;;;;;;;;;22.80;99.90;;;;;;5059465;28;19960;-75
2023/01/03 11:20:21;;;;;;;;;;;22.70;99.90;;;;;;5081636;28;20493;-74
2023/01/03 11:23:05;;;;;;;;;;;22.60;99.90;;;;;;5066532;28;21458;-73
2023/01/03 11:25:38;;;;;;;;;;;22.80;99.90;;;;;;5066948;28;19951;-74
2023/01/03 11:28:13;;;;;;;;;;;22.90;99.90;;;;;;5062132;28;19927;-70
2023/01/03 11:30:40;;;;;;;;;;;22.90;99.90;;;;;;5061986;28;19921;-69
2023/01/03 11:33:12;;;;;;;;;;;22.90;99.90;;;;;;5061356;28;19952;-72
2023/01/03 11:35:39;;;;;;;;;;;22.90;99.90;;;;;;5068624;28;19916;-77
2023/01/03 11:38:24;;;;;;;;;;;22.80;99.90;;;;;;5059529;28;20069;-73
2023/01/03 11:40:57;;;;;;;;;;;22.80;99.90;;;;;;5065385;28;20291;-73
2023/01/03 11:43:41;;;;;;;;;;;22.90;99.90;;;;;;5063263;28;20003;-74
2023/01/03 11:46:21;;;;;;;;;;;22.80;99.90;;;;;;5073963;28;19917;-71
2023/01/03 11:48:51;;;;;;;;;;;22.80;99.90;;;;;;5063584;28;19920;-72
2023/01/03 11:51:44;;;;;;;;;;;22.80;99.90;;;;;;5062600;28;19916;-70
2023/01/03 11:54:34;;;;;;;;;;;22.70;99.90;;;;;;5065475;28;20019;-74
2023/01/03 11:57:07;;;;;;;;;;;22.70;99.90;;;;;;5063653;28;19924;-72
2023/01/03 11:59:49;;;;;;;;;;;22.80;99.90;;;;;;5069769;28;19954;-74
2023/01/03 12:02:21;;;;;;;;;;;22.80;99.90;;;;;;5071282;28;19913;-76
2023/01/03 12:04:52;;;;;;;;;;;22.80;99.90;;;;;;5062479;28;19916;-73
2023/01/03 12:07:22;;;;;;;;;;;22.90;99.90;;;;;;5068169;28;20404;-70
2023/01/03 12:09:53;;;;;;;;;;;23.10;99.90;;;;;;5067904;28;19946;-73
2023/01/03 12:12:24;;;;;;;;;;;23.20;99.90;;;;;;5068527;28;20291;-70
2023/01/03 12:14:53;;;;;;;;;;;23.20;99.90;;;;;;5067574;28;20444;-75
2023/01/03 12:17:24;;;;;;;;;;;23.30;99.90;;;;;;5071268;28;19916;-70
2023/01/03 12:19:59;;;;;;;;;;;23.30;99.90;;;;;;5054001;28;20010;-73
2023/01/03 12:22:32;;;;;;;;;;;23.30;99.90;;;;;;5060082;28;19917;-72
2023/01/03 12:24:59;;;;;;;;;;;23.30;99.90;;;;;;5060102;28;19923;-74
2023/01/03 12:27:30;;;;;;;;;;;23.20;99.90;;;;;;5068330;28;19912;-69
2023/01/03 12:30:03;;;;;;;;;;;23.20;99.90;;;;;;5057529;28;19916;-72
2023/01/03 12:33:04;;;;;;;;;;;23.20;99.90;;;;;;5061739;28;19924;-70
2023/01/03 12:35:41;;;;;;;;;;;23.20;99.90;;;;;;5012043;28;20063;-72
2023/01/03 12:38:09;;;;;;;;;;;23.10;99.90;;;;;;5055522;28;19993;-79
2023/01/03 12:40:37;;;;;;;;;;;23.10;99.90;;;;;;5058236;28;20329;-79
2023/01/03 12:43:16;;;;;;;;;;;23.00;99.90;;;;;;5067257;28;19912;-75
2023/01/03 12:45:43;;;;;;;;;;;22.90;99.90;;;;;;5070169;28;19912;-70
2023/01/03 12:48:13;;;;;;;;;;;22.90;99.90;;;;;;5060253;28;19975;-69
2023/01/03 12:50:45;;;;;;;;;;;22.80;99.90;;;;;;5069036;28;20018;-83
2023/01/03 12:53:21;;;;;;;;;;;22.80;99.90;;;;;;5055610;28;19951;-78
2023/01/03 12:56:03;;;;;;;;;;;22.80;99.90;;;;;;5066111;28;19920;-69
2023/01/03 12:58:45;;;;;;;;;;;22.80;99.90;;;;;;5068197;28;20083;-70
2023/01/03 13:01:14;;;;;;;;;;;22.80;99.90;;;;;;5066359;28;19925;-77
2023/01/03 13:03:43;;;;;;;;;;;22.80;99.90;;;;;;5063759;28;19920;-81
2023/01/03 13:06:16;;;;;;;;;;;22.70;99.90;;;;;;5065723;28;19932;-80
2023/01/03 13:08:45;;;;;;;;;;;22.60;99.90;;;;;;5069327;28;20000;-79
2023/01/03 13:11:21;;;;;;;;;;;22.60;99.90;;;;;;5067604;28;19917;-73
2023/01/03 13:13:58;;;;;;;;;;;22.50;99.90;;;;;;5055637;28;20293;-78
2023/01/03 13:16:34;;;;;;;;;;;22.40;99.90;;;;;;5059812;28;19968;-78
2023/01/03 13:19:18;;;;;;;;;;;22.30;99.90;;;;;;5052395;28;19927;-80
2023/01/03 13:22:04;;;;;;;;;;;22.30;99.90;;;;;;5070029;28;19920;-78
2023/01/03 13:24:41;;;;;;;;;;;22.20;99.90;;;;;;5071592;28;19913;-69
2023/01/03 13:27:21;;;;;;;;;;;22.20;99.90;;;;;;5064631;28;19912;-78
2023/01/03 13:29:48;;;;;;;;;;;22.20;99.90;;;;;;5068208;28;19916;-77
2023/01/03 13:32:25;;;;;;;;;;;22.30;99.90;;;;;;5065950;28;20373;-80
2023/01/03 13:34:58;;;;;;;;;;;22.20;99.90;;;;;;5060210;28;19943;-83
2023/01/03 13:37:42;;;;;;;;;;;22.30;99.90;;;;;;5070247;28;19921;-82
2023/01/03 13:40:11;;;;;;;;;;;22.30;99.90;;;;;;5066109;28;20410;-76
2023/01/03 13:42:42;;;;;;;;;;;22.30;99.90;;;;;;5057347;28;20035;-75
2023/01/03 13:45:11;;;;;;;;;;;22.30;99.90;;;;;;5065446;28;20418;-79
2023/01/03 13:47:42;;;;;;;;;;;22.30;99.90;;;;;;5070552;28;19912;-72
2023/01/03 13:50:22;;;;;;;;;;;22.30;99.90;;;;;;5063655;28;19916;-74
2023/01/03 13:52:58;;;;;;;;;;;22.40;99.90;;;;;;5067825;28;19923;-73
2023/01/03 13:55:47;;;;;;;;;;;22.40;99.90;;;;;;5063181;28;19917;-78
2023/01/03 13:58:26;;;;;;;;;;;22.40;99.90;;;;;;5060822;28;19924;-73
2023/01/03 14:00:54;;;;;;;;;;;22.40;99.90;;;;;;5070510;28;19921;-79
2023/01/03 14:03:56;;;;;;;;;;;22.40;99.90;;;;;;5070186;28;19999;-74
2023/01/03 14:06:23;;;;;;;;;;;22.40;99.90;;;;;;5027620;28;19948;-80
2023/01/03 14:09:08;;;;;;;;;;;22.40;99.90;;;;;;5055843;28;19931;-76
2023/01/03 14:11:41;;;;;;;;;;;22.40;99.90;;;;;;5064600;28;20374;-79
2023/01/03 14:14:14;;;;;;;;;;;22.40;99.90;;;;;;5065001;28;19919;-79
2023/01/03 14:16:46;;;;;;;;;;;22.50;99.90;;;;;;5063281;28;20331;-74
2023/01/03 14:19:21;;;;;;;;;;;22.50;99.90;;;;;;5064564;28;19916;-70
2023/01/03 14:21:51;;;;;;;;;;;22.50;99.90;;;;;;5073411;28;20698;-69
2023/01/03 14:24:27;;;;;;;;;;;22.50;99.90;;;;;;5063328;28;20385;-74
2023/01/03 14:26:55;;;;;;;;;;;22.50;99.90;;;;;;5061697;28;19916;-74
2023/01/03 14:29:23;;;;;;;;;;;22.50;99.90;;;;;;5065460;28;20004;-76
2023/01/03 14:31:52;;;;;;;;;;;22.60;99.90;;;;;;5070841;28;19951;-73
2023/01/03 14:34:26;;;;;;;;;;;22.50;99.90;;;;;;5060519;28;20274;-70
2023/01/03 14:36:59;;;;;;;;;;;22.60;99.90;;;;;;5066616;28;20273;-76
2023/01/03 14:39:31;;;;;;;;;;;22.50;99.90;;;;;;5055823;28;19921;-69
2023/01/03 14:41:59;;;;;;;;;;;22.60;99.90;;;;;;5051908;28;19928;-81
2023/01/03 14:44:27;;;;;;;;;;;22.60;99.90;;;;;;5059620;28;19919;-80
2023/01/03 14:46:58;;;;;;;;;;;22.60;99.90;;;;;;5069856;28;19954;-75
2023/01/03 14:49:42;;;;;;;;;;;22.50;99.90;;;;;;5069253;28;19912;-79
2023/01/03 14:52:15;;;;;;;;;;;22.50;99.90;;;;;;5072091;28;19909;-81
2023/01/03 14:54:46;;;;;;;;;;;22.40;99.90;;;;;;5076089;28;19916;-75
2023/01/03 14:57:21;;;;;;;;;;;22.40;99.90;;;;;;5063037;28;19917;-78
2023/01/03 14:59:48;;;;;;;;;;;22.30;99.90;;;;;;5055706;28;19921;-73
2023/01/03 15:02:15;;;;;;;;;;;22.20;99.90;;;;;;5051909;28;19997;-74
2023/01/03 15:04:48;;;;;;;;;;;22.20;99.90;;;;;;5063921;28;19950;-75
2023/01/03 15:07:24;;;;;;;;;;;22.10;99.90;;;;;;5067002;28;20562;-72
2023/01/03 15:10:01;;;;;;;;;;;22.10;99.90;;;;;;5055581;28;19944;-76
2023/01/03 15:12:28;;;;;;;;;;;22.00;99.90;;;;;;5069015;28;19912;-68
2023/01/03 15:14:55;;;;;;;;;;;22.00;99.90;;;;;;5068990;28;20013;-72
2023/01/03 15:17:25;;;;;;;;;;;22.00;99.90;;;;;;5070128;28;19912;-77
2023/01/03 15:19:53;;;;;;;;;;;22.00;99.90;;;;;;5069499;28;19952;-72
2023/01/03 15:22:21;;;;;;;;;;;22.00;99.90;;;;;;5069027;28;19916;-73
2023/01/03 15:24:49;;;;;;;;;;;22.00;99.90;;;;;;5059557;28;19912;-76
2023/01/03 15:27:34;;;;;;;;;;;22.00;99.90;;;;;;5068386;28;19968;-71
2023/01/03 15:30:10;;;;;;;;;;;22.00;99.90;;;;;;5071151;28;19940;-73
2023/01/03 15:32:49;;;;;;;;;;;22.00;99.90;;;;;;5064048;28;20395;-72